Time;durP1;ratioP1;P1;durP2;ratioP2;P2;SDS_P1;SDS_P2;PMS_P1;PMS_P2;Temp;Humidity;BMP_temperature;BMP_pressure;BME280_temperature;BME280_humidity;BME280_pressure;Samples;Min_cycle;Max_cycle;Signal;HPM_P1;HPM_P2
2021/12/09 00:00:14;;;;;;;;;;;15.70;38.10;;;;;;8366397;28;19928;-48
2021/12/09 00:04:19;;;;;;;;;;;15.80;38.10;;;;;;8366573;28;19999;-48
2021/12/09 00:08:19;;;;;;;;;;;15.70;38.10;;;;;;8366494;28;19917;-48
2021/12/09 00:12:22;;;;;;;;;;;15.80;38.20;;;;;;8365707;28;19932;-48
2021/12/09 00:16:23;;;;;;;;;;;15.80;38.20;;;;;;8366284;28;20008;-48
2021/12/09 00:20:24;;;;;;;;;;;15.80;38.20;;;;;;8365910;28;19917;-49
2021/12/09 00:24:24;;;;;;;;;;;15.70;38.20;;;;;;8365527;28;19917;-49
2021/12/09 00:28:25;;;;;;;;;;;15.70;38.20;;;;;;8365726;28;19920;-49
2021/12/09 00:32:25;;;;;;;;;;;15.70;38.30;;;;;;8365631;28;19921;-49
2021/12/09 00:36:34;;;;;;;;;;;15.70;38.30;;;;;;8364993;28;19916;-51
2021/12/09 00:40:36;;;;;;;;;;;15.70;38.30;;;;;;8368974;28;19965;-48
2021/12/09 00:44:37;;;;;;;;;;;15.70;38.30;;;;;;8365430;28;20352;-49
2021/12/09 00:48:37;;;;;;;;;;;15.60;38.30;;;;;;8364433;28;19921;-47
2021/12/09 00:52:38;;;;;;;;;;;15.60;38.30;;;;;;8364413;28;19916;-48
2021/12/09 00:56:38;;;;;;;;;;;15.60;38.30;;;;;;8364785;28;19917;-49
2021/12/09 01:00:39;;;;;;;;;;;15.60;38.30;;;;;;8364468;28;19921;-51
2021/12/09 01:04:39;;;;;;;;;;;15.60;38.30;;;;;;8363342;28;19917;-52
2021/12/09 01:08:41;;;;;;;;;;;15.60;38.30;;;;;;8364202;28;19923;-51
2021/12/09 01:12:42;;;;;;;;;;;15.60;38.30;;;;;;8363969;28;20293;-51
2021/12/09 01:16:42;;;;;;;;;;;15.60;38.30;;;;;;8364012;28;20063;-51
2021/12/09 01:20:43;;;;;;;;;;;15.60;38.30;;;;;;8364108;28;19917;-53
2021/12/09 01:24:43;;;;;;;;;;;15.60;38.30;;;;;;8363759;28;19923;-49
2021/12/09 01:29:08;;;;;;;;;;;15.60;38.30;;;;;;8363722;28;19917;-52
2021/12/09 01:33:09;;;;;;;;;;;15.60;38.30;;;;;;8363259;28;21032;-49
2021/12/09 01:37:10;;;;;;;;;;;15.60;38.30;;;;;;8363676;28;19916;-51
2021/12/09 01:41:10;;;;;;;;;;;15.70;38.30;;;;;;8363792;28;19912;-49
2021/12/09 01:45:11;;;;;;;;;;;15.70;38.30;;;;;;8363155;28;19923;-48
2021/12/09 01:49:11;;;;;;;;;;;15.70;38.20;;;;;;8363369;28;20385;-48
2021/12/09 01:53:12;;;;;;;;;;;15.70;38.20;;;;;;8363314;28;20369;-50
2021/12/09 01:57:12;;;;;;;;;;;15.70;38.20;;;;;;8362890;28;19917;-51
2021/12/09 02:01:13;;;;;;;;;;;15.70;38.20;;;;;;8363652;28;20028;-49
2021/12/09 02:05:14;;;;;;;;;;;15.80;38.20;;;;;;8370534;28;20382;-49
2021/12/09 02:09:15;;;;;;;;;;;15.80;38.20;;;;;;8350477;28;19932;-49
2021/12/09 02:13:16;;;;;;;;;;;15.80;38.20;;;;;;8356212;28;19916;-48
2021/12/09 02:17:16;;;;;;;;;;;15.80;38.20;;;;;;8369740;28;19925;-49
2021/12/09 02:21:18;;;;;;;;;;;15.80;38.20;;;;;;8369156;28;19913;-48
2021/12/09 02:25:18;;;;;;;;;;;15.80;38.20;;;;;;8369936;28;19920;-49
2021/12/09 02:29:19;;;;;;;;;;;15.80;38.20;;;;;;8369291;28;20012;-49
2021/12/09 02:33:19;;;;;;;;;;;15.80;38.20;;;;;;8368788;28;19924;-48
2021/12/09 02:37:20;;;;;;;;;;;15.70;38.20;;;;;;8369104;28;20386;-48
2021/12/09 02:41:22;;;;;;;;;;;15.70;38.30;;;;;;8369038;28;19913;-48
2021/12/09 02:45:22;;;;;;;;;;;15.70;38.30;;;;;;8368670;28;19919;-47
2021/12/09 02:49:27;;;;;;;;;;;15.70;38.30;;;;;;8368664;28;19928;-48
2021/12/09 02:53:28;;;;;;;;;;;15.70;38.30;;;;;;8368698;28;19999;-48
2021/12/09 02:57:28;;;;;;;;;;;15.70;38.30;;;;;;8368235;28;19963;-47
2021/12/09 03:01:34;;;;;;;;;;;15.70;38.30;;;;;;8368679;28;19928;-48
2021/12/09 03:05:34;;;;;;;;;;;15.70;38.30;;;;;;8368424;28;20007;-48
2021/12/09 03:09:35;;;;;;;;;;;15.70;38.30;;;;;;8367502;28;19932;-48
2021/12/09 03:13:37;;;;;;;;;;;15.60;38.40;;;;;;8367558;28;19917;-49
2021/12/09 03:17:38;;;;;;;;;;;15.60;38.40;;;;;;8367656;28;19912;-49
2021/12/09 03:21:39;;;;;;;;;;;15.60;38.40;;;;;;8367833;28;19923;-48
2021/12/09 03:25:41;;;;;;;;;;;15.60;38.40;;;;;;8367574;28;19917;-49
2021/12/09 03:29:41;;;;;;;;;;;15.60;38.40;;;;;;8367464;28;20372;-50
2021/12/09 03:33:42;;;;;;;;;;;15.60;38.40;;;;;;8366916;28;19932;-50
2021/12/09 03:37:42;;;;;;;;;;;15.60;38.40;;;;;;8367365;28;19912;-50
2021/12/09 03:41:44;;;;;;;;;;;15.60;38.40;;;;;;8366730;28;19917;-50
2021/12/09 03:45:44;;;;;;;;;;;15.60;38.40;;;;;;8366415;28;19921;-51
2021/12/09 03:49:45;;;;;;;;;;;15.60;38.40;;;;;;8366392;28;20516;-53
2021/12/09 03:53:45;;;;;;;;;;;15.60;38.40;;;;;;8366560;28;20007;-49
2021/12/09 03:57:46;;;;;;;;;;;15.60;38.40;;;;;;8366245;28;20370;-49
2021/12/09 04:01:46;;;;;;;;;;;15.70;38.40;;;;;;8366734;28;20370;-50
2021/12/09 04:05:47;;;;;;;;;;;15.70;38.90;;;;;;8366577;28;19917;-49
2021/12/09 04:09:48;;;;;;;;;;;15.70;38.30;;;;;;8365818;28;19932;-49
2021/12/09 04:13:48;;;;;;;;;;;15.70;38.30;;;;;;8366184;28;20385;-50
2021/12/09 04:17:49;;;;;;;;;;;15.70;38.40;;;;;;8365743;28;20315;-50
2021/12/09 04:21:50;;;;;;;;;;;15.70;38.40;;;;;;8365850;28;19948;-53
2021/12/09 04:25:51;;;;;;;;;;;15.70;38.30;;;;;;8365183;28;19963;-51
2021/12/09 04:29:52;;;;;;;;;;;15.70;38.30;;;;;;8365035;28;19925;-49
2021/12/09 04:33:53;;;;;;;;;;;15.70;38.30;;;;;;8365571;28;19921;-49
2021/12/09 04:37:53;;;;;;;;;;;15.80;38.30;;;;;;8365349;28;20432;-50
2021/12/09 04:41:54;;;;;;;;;;;15.70;38.30;;;;;;8365132;28;20477;-49
2021/12/09 04:45:57;;;;;;;;;;;15.80;38.30;;;;;;8365286;28;19917;-49
2021/12/09 04:49:58;;;;;;;;;;;15.80;38.40;;;;;;8364988;28;20297;-50
2021/12/09 04:53:58;;;;;;;;;;;15.80;38.40;;;;;;8364630;28;19920;-50
2021/12/09 04:57:59;;;;;;;;;;;15.80;38.30;;;;;;8364629;28;19919;-49
2021/12/09 05:01:59;;;;;;;;;;;15.80;38.40;;;;;;8365140;28;19978;-49
2021/12/09 05:06:00;;;;;;;;;;;15.80;38.40;;;;;;8364003;28;19917;-49
2021/12/09 05:10:00;;;;;;;;;;;15.80;38.40;;;;;;8347444;28;20321;-50
2021/12/09 05:14:01;;;;;;;;;;;15.70;38.40;;;;;;8346913;28;20369;-49
2021/12/09 05:18:01;;;;;;;;;;;15.70;38.40;;;;;;8363691;28;19925;-50
2021/12/09 05:22:02;;;;;;;;;;;15.70;38.40;;;;;;8364177;28;19936;-51
2021/12/09 05:26:03;;;;;;;;;;;15.70;38.40;;;;;;8363889;28;19998;-52
2021/12/09 05:30:07;;;;;;;;;;;15.70;38.40;;;;;;8363383;28;19982;-50
2021/12/09 05:34:08;;;;;;;;;;;15.70;38.40;;;;;;8364009;28;20366;-50
2021/12/09 05:38:08;;;;;;;;;;;15.70;38.40;;;;;;8363265;28;19920;-50
2021/12/09 05:42:09;;;;;;;;;;;15.70;38.50;;;;;;8363490;28;20429;-49
2021/12/09 05:46:10;;;;;;;;;;;15.70;38.50;;;;;;8363454;28;19924;-50
2021/12/09 05:50:11;;;;;;;;;;;15.70;38.50;;;;;;8363336;28;19979;-51
2021/12/09 05:54:12;;;;;;;;;;;15.70;38.50;;;;;;8362811;28;20286;-50
2021/12/09 05:58:14;;;;;;;;;;;15.70;38.50;;;;;;8363271;28;19920;-49
2021/12/09 06:02:16;;;;;;;;;;;15.70;38.50;;;;;;8363573;28;19928;-50
2021/12/09 06:06:16;;;;;;;;;;;15.70;38.50;;;;;;8362829;28;19923;-49
2021/12/09 06:10:17;;;;;;;;;;;15.70;38.60;;;;;;8363220;28;19956;-49
2021/12/09 06:14:18;;;;;;;;;;;15.70;38.50;;;;;;8362953;28;20011;-50
2021/12/09 06:18:18;;;;;;;;;;;15.70;38.60;;;;;;8362518;28;19952;-49
2021/12/09 06:22:18;;;;;;;;;;;15.70;38.60;;;;;;8363052;28;20008;-49
2021/12/09 06:26:20;;;;;;;;;;;15.70;38.60;;;;;;8362863;28;19917;-50
2021/12/09 06:30:20;;;;;;;;;;;15.60;38.60;;;;;;8361508;28;19931;-49
2021/12/09 06:34:21;;;;;;;;;;;15.60;38.60;;;;;;8362472;28;20283;-50
2021/12/09 06:38:22;;;;;;;;;;;15.70;38.60;;;;;;8362664;28;19916;-49
2021/12/09 06:42:22;;;;;;;;;;;15.60;38.60;;;;;;8362433;28;20386;-50
2021/12/09 06:46:23;;;;;;;;;;;15.60;38.60;;;;;;8362639;28;19931;-50
2021/12/09 06:50:23;;;;;;;;;;;15.60;38.60;;;;;;8365930;28;19924;-50
2021/12/09 06:54:24;;;;;;;;;;;15.60;38.60;;;;;;8368157;28;19970;-48
2021/12/09 06:58:25;;;;;;;;;;;15.60;38.60;;;;;;8368539;28;19917;-48
2021/12/09 07:02:25;;;;;;;;;;;15.60;38.60;;;;;;8368746;28;19924;-48
2021/12/09 07:06:26;;;;;;;;;;;15.60;38.60;;;;;;8367905;28;19917;-49
2021/12/09 07:10:27;;;;;;;;;;;15.70;38.60;;;;;;8368197;28;20406;-48
2021/12/09 07:14:27;;;;;;;;;;;15.60;38.60;;;;;;8368057;28;20358;-48
2021/12/09 07:18:28;;;;;;;;;;;15.70;38.60;;;;;;8367366;28;19941;-49
2021/12/09 07:22:29;;;;;;;;;;;15.60;38.60;;;;;;8368156;28;19936;-50
2021/12/09 07:26:30;;;;;;;;;;;15.70;38.60;;;;;;8367704;28;19928;-49
2021/12/09 07:30:30;;;;;;;;;;;15.60;38.60;;;;;;8367020;28;20371;-49
2021/12/09 07:34:31;;;;;;;;;;;15.60;38.60;;;;;;8367409;28;19917;-49
2021/12/09 07:38:31;;;;;;;;;;;15.70;38.60;;;;;;8367338;28;19978;-48
2021/12/09 07:42:32;;;;;;;;;;;15.70;38.60;;;;;;8367030;28;19917;-48
2021/12/09 07:46:34;;;;;;;;;;;15.60;38.60;;;;;;8367283;28;19921;-49
2021/12/09 07:50:35;;;;;;;;;;;15.60;38.60;;;;;;8366976;28;20016;-48
2021/12/09 07:54:35;;;;;;;;;;;15.60;38.60;;;;;;8366359;28;19917;-48
2021/12/09 07:58:36;;;;;;;;;;;15.60;38.60;;;;;;8366505;28;19928;-48
2021/12/09 08:02:36;;;;;;;;;;;15.60;38.60;;;;;;8366524;28;19913;-49
2021/12/09 08:06:37;;;;;;;;;;;15.60;38.60;;;;;;8364282;28;19916;-48
2021/12/09 08:10:38;;;;;;;;;;;15.60;38.60;;;;;;8349468;28;19931;-49
2021/12/09 08:14:38;;;;;;;;;;;15.60;38.60;;;;;;8342146;28;19962;-48
2021/12/09 08:18:54;;;;;;;;;;;15.60;38.60;;;;;;8363925;28;19924;-47
2021/12/09 08:22:54;;;;;;;;;;;15.60;38.60;;;;;;8364793;28;19913;-48
2021/12/09 08:26:55;;;;;;;;;;;15.60;38.70;;;;;;8363715;28;19923;-48
2021/12/09 08:30:55;;;;;;;;;;;15.60;38.60;;;;;;8364160;28;19932;-48
2021/12/09 08:34:56;;;;;;;;;;;15.60;38.60;;;;;;8364058;28;20437;-48
2021/12/09 08:38:56;;;;;;;;;;;15.60;38.60;;;;;;8363425;28;20382;-48
2021/12/09 08:42:57;;;;;;;;;;;15.60;38.60;;;;;;8362677;28;20289;-49
2021/12/09 08:46:57;;;;;;;;;;;15.70;38.70;;;;;;8363626;28;19917;-48
2021/12/09 08:50:58;;;;;;;;;;;15.60;38.60;;;;;;8362940;28;19932;-48
2021/12/09 08:54:58;;;;;;;;;;;15.60;38.60;;;;;;8363578;28;19963;-47
2021/12/09 08:58:59;;;;;;;;;;;15.70;38.70;;;;;;8363114;28;19928;-49
2021/12/09 09:03:00;;;;;;;;;;;15.70;38.60;;;;;;8362806;28;20298;-48
2021/12/09 09:07:01;;;;;;;;;;;15.70;38.70;;;;;;8362948;28;19917;-49
2021/12/09 09:11:01;;;;;;;;;;;15.70;38.70;;;;;;8363426;28;19924;-49
2021/12/09 09:15:03;;;;;;;;;;;15.70;38.70;;;;;;8363830;28;19924;-48
2021/12/09 09:19:04;;;;;;;;;;;15.70;38.70;;;;;;8364105;28;19917;-49
2021/12/09 09:23:05;;;;;;;;;;;15.70;38.60;;;;;;8364437;28;20385;-49
2021/12/09 09:27:06;;;;;;;;;;;15.70;38.70;;;;;;8363620;28;19923;-50
2021/12/09 09:31:08;;;;;;;;;;;15.70;38.70;;;;;;8363756;28;19968;-49
2021/12/09 09:35:09;;;;;;;;;;;15.70;38.70;;;;;;8364035;28;19920;-50
2021/12/09 09:39:17;;;;;;;;;;;15.70;38.70;;;;;;8363145;28;19919;-51
2021/12/09 09:47:38;;;;;;;;;;;15.60;38.70;;;;;;8363650;28;20385;-48
2021/12/09 09:51:39;;;;;;;;;;;15.70;38.70;;;;;;8363158;28;19925;-48
2021/12/09 09:55:41;;;;;;;;;;;15.70;38.70;;;;;;8363421;28;19923;-48
2021/12/09 09:59:42;;;;;;;;;;;15.70;38.70;;;;;;8363373;28;19921;-48
2021/12/09 10:03:46;;;;;;;;;;;15.70;38.70;;;;;;8362777;28;20354;-49
2021/12/09 10:07:46;;;;;;;;;;;15.70;38.70;;;;;;8363075;28;20353;-49
2021/12/09 10:11:47;;;;;;;;;;;15.70;38.70;;;;;;8362966;28;20011;-48
2021/12/09 10:15:52;;;;;;;;;;;15.70;38.70;;;;;;8362418;28;19923;-49
2021/12/09 10:19:55;;;;;;;;;;;15.70;38.70;;;;;;8362860;28;19939;-49
2021/12/09 10:24:03;;;;;;;;;;;15.70;38.70;;;;;;8364033;28;20297;-48
2021/12/09 10:28:05;;;;;;;;;;;15.70;38.70;;;;;;8369708;28;19922;-49
2021/12/09 10:32:08;;;;;;;;;;;15.70;38.70;;;;;;8369507;28;20002;-50
2021/12/09 10:36:09;;;;;;;;;;;15.70;38.70;;;;;;8368986;28;20438;-50
2021/12/09 10:40:11;;;;;;;;;;;15.70;38.70;;;;;;8369038;28;19917;-49
2021/12/09 10:44:12;;;;;;;;;;;15.80;38.70;;;;;;8369297;28;19917;-50
2021/12/09 10:48:25;;;;;;;;;;;15.70;38.70;;;;;;8368568;28;19916;-48
2021/12/09 10:52:36;;;;;;;;;;;15.80;38.70;;;;;;8368729;28;20298;-48
2021/12/09 10:56:36;;;;;;;;;;;15.80;38.70;;;;;;8369623;28;20038;-48
2021/12/09 11:00:39;;;;;;;;;;;15.80;38.70;;;;;;8368449;28;19921;-52
2021/12/09 11:04:39;;;;;;;;;;;15.80;38.70;;;;;;8368240;28;19913;-50
2021/12/09 11:08:41;;;;;;;;;;;15.80;38.70;;;;;;8367531;28;19917;-49
2021/12/09 11:12:51;;;;;;;;;;;15.80;38.80;;;;;;8367637;28;19931;-50
2021/12/09 11:17:03;;;;;;;;;;;15.80;38.80;;;;;;8367806;28;19917;-50
2021/12/09 11:21:06;;;;;;;;;;;15.80;38.80;;;;;;8367257;28;19917;-48
2021/12/09 11:25:31;;;;;;;;;;;15.80;38.70;;;;;;8367553;28;20250;-48
2021/12/09 11:29:37;;;;;;;;;;;15.80;38.80;;;;;;8367750;28;20354;-49
2021/12/09 11:33:42;;;;;;;;;;;15.80;38.70;;;;;;8366797;28;19924;-48
2021/12/09 11:41:45;;;;;;;;;;;15.80;38.80;;;;;;8367367;28;20446;-49
2021/12/09 11:45:47;;;;;;;;;;;15.80;38.80;;;;;;8366628;28;19924;-49
2021/12/09 11:49:51;;;;;;;;;;;15.80;38.80;;;;;;8366942;28;20283;-48
2021/12/09 11:53:56;;;;;;;;;;;15.80;38.70;;;;;;8366665;28;19917;-48
2021/12/09 11:58:01;;;;;;;;;;;15.80;38.70;;;;;;8366669;28;19917;-48
2021/12/09 12:19:49;;;;;;;;;;;15.80;38.80;;;;;;8367465;28;19913;-47
2021/12/09 12:24:14;;;;;;;;;;;15.80;38.80;;;;;;8365299;28;19921;-47
2021/12/09 12:28:19;;;;;;;;;;;15.80;38.80;;;;;;8365786;28;20378;-47
2021/12/09 12:37:09;;;;;;;;;;;15.80;38.80;;;;;;8365730;28;20320;-47
2021/12/09 12:41:15;;;;;;;;;;;15.80;38.80;;;;;;8365422;28;19964;-50
2021/12/09 12:49:36;;;;;;;;;;;15.80;38.80;;;;;;8371455;28;19976;-48
2021/12/09 12:53:40;;;;;;;;;;;15.90;38.80;;;;;;8364952;28;19974;-48
2021/12/09 12:57:44;;;;;;;;;;;15.80;38.70;;;;;;8364400;28;20468;-49
2021/12/09 13:02:01;;;;;;;;;;;15.80;38.70;;;;;;8365019;28;19921;-47
2021/12/09 13:06:13;;;;;;;;;;;15.80;38.70;;;;;;8364169;28;19952;-48
2021/12/09 13:10:32;;;;;;;;;;;15.80;38.70;;;;;;8364605;28;20020;-48
2021/12/09 13:14:37;;;;;;;;;;;15.90;38.70;;;;;;8364503;28;20019;-49
2021/12/09 13:18:41;;;;;;;;;;;15.80;38.70;;;;;;8363635;28;19924;-48
2021/12/09 13:22:42;;;;;;;;;;;15.80;38.70;;;;;;8364317;28;19920;-48
2021/12/09 13:27:01;;;;;;;;;;;15.80;38.70;;;;;;8363897;28;19931;-48
2021/12/09 13:31:10;;;;;;;;;;;15.90;38.70;;;;;;8341156;28;20449;-48
2021/12/09 13:35:16;;;;;;;;;;;15.90;38.70;;;;;;8368360;28;19924;-50
2021/12/09 13:47:54;;;;;;;;;;;15.90;38.70;;;;;;8351153;28;19951;-48
2021/12/09 13:54:02;;;;;;;;;;;15.80;38.70;;;;;;8362821;28;19928;-47
2021/12/09 13:56:25;;;;;;;;;;;15.80;38.70;;;;;;8362762;28;20285;-48
2021/12/09 14:00:25;;;;;;;;;;;15.90;38.70;;;;;;8362596;28;19982;-49
2021/12/09 14:04:36;;;;;;;;;;;15.80;38.60;;;;;;8362009;28;19921;-49
2021/12/09 14:08:43;;;;;;;;;;;15.80;38.60;;;;;;8362954;28;19924;-48
2021/12/09 14:12:49;;;;;;;;;;;15.80;38.60;;;;;;8362853;28;20338;-50
2021/12/09 14:16:54;;;;;;;;;;;15.90;38.70;;;;;;8363218;28;19924;-50
2021/12/09 14:20:55;;;;;;;;;;;15.90;38.70;;;;;;8364430;28;19996;-47
2021/12/09 14:24:56;;;;;;;;;;;15.90;38.70;;;;;;8363017;28;20297;-47
2021/12/09 14:29:00;;;;;;;;;;;15.90;38.70;;;;;;8362920;28;20352;-49
2021/12/09 14:33:00;;;;;;;;;;;15.90;38.70;;;;;;8362001;28;20023;-50
2021/12/09 14:37:03;;;;;;;;;;;15.90;38.70;;;;;;8362674;28;19916;-51
2021/12/09 14:41:14;;;;;;;;;;;15.90;38.70;;;;;;8362442;28;19932;-50
2021/12/09 14:45:15;;;;;;;;;;;15.90;38.70;;;;;;8362051;28;19916;-49
2021/12/09 14:49:17;;;;;;;;;;;15.90;39.20;;;;;;8362259;28;19960;-48
2021/12/09 14:53:33;;;;;;;;;;;15.90;38.70;;;;;;8362468;28;19962;-49
2021/12/09 14:57:33;;;;;;;;;;;15.90;38.70;;;;;;8362005;28;20281;-51
2021/12/09 15:01:34;;;;;;;;;;;15.90;38.70;;;;;;8362587;28;19921;-49
2021/12/09 15:05:53;;;;;;;;;;;15.90;38.70;;;;;;8362580;28;19917;-49
2021/12/09 15:10:00;;;;;;;;;;;15.90;38.70;;;;;;8363162;28;19924;-48
2021/12/09 15:14:00;;;;;;;;;;;15.90;39.30;;;;;;8368059;28;19917;-51
2021/12/09 15:18:06;;;;;;;;;;;15.90;38.70;;;;;;8367477;28;19917;-49
2021/12/09 15:22:11;;;;;;;;;;;15.90;38.70;;;;;;8370800;28;19962;-50
2021/12/09 15:26:15;;;;;;;;;;;15.80;38.60;;;;;;8368077;28;19967;-50
2021/12/09 15:30:17;;;;;;;;;;;15.90;38.70;;;;;;8367021;28;19986;-52
2021/12/09 15:34:19;;;;;;;;;;;15.90;38.70;;;;;;8367256;28;19917;-50
2021/12/09 15:38:21;;;;;;;;;;;15.90;38.70;;;;;;8367350;28;19920;-50
2021/12/09 15:42:23;;;;;;;;;;;15.80;38.70;;;;;;8366871;28;19917;-51
2021/12/09 15:46:24;;;;;;;;;;;15.80;38.70;;;;;;8367289;28;20340;-50
2021/12/09 15:50:28;;;;;;;;;;;15.80;38.70;;;;;;8366973;28;19931;-49
2021/12/09 15:54:32;;;;;;;;;;;15.80;38.70;;;;;;8366155;28;19917;-52
2021/12/09 15:58:33;;;;;;;;;;;15.80;39.20;;;;;;8366725;28;19917;-50
2021/12/09 16:02:36;;;;;;;;;;;15.80;38.70;;;;;;8365767;28;21289;-51
2021/12/09 16:06:36;;;;;;;;;;;15.80;38.70;;;;;;8365987;28;19913;-49
2021/12/09 16:10:37;;;;;;;;;;;15.80;38.70;;;;;;8366613;28;19928;-51
2021/12/09 16:14:43;;;;;;;;;;;15.80;38.70;;;;;;8366205;28;19970;-50
2021/12/09 16:18:44;;;;;;;;;;;15.80;38.70;;;;;;8365973;28;19916;-50
2021/12/09 16:22:44;;;;;;;;;;;15.80;38.70;;;;;;8365987;28;20297;-51
2021/12/09 16:26:45;;;;;;;;;;;15.80;38.70;;;;;;8365889;28;19938;-50
2021/12/09 16:30:46;;;;;;;;;;;15.80;38.80;;;;;;8365609;28;20023;-50
2021/12/09 16:34:48;;;;;;;;;;;15.80;38.70;;;;;;8365735;28;19916;-53
2021/12/09 16:38:49;;;;;;;;;;;15.80;38.80;;;;;;8365027;28;19917;-50
2021/12/09 16:42:50;;;;;;;;;;;15.80;38.70;;;;;;8365204;28;19917;-50
2021/12/09 16:46:51;;;;;;;;;;;15.80;38.70;;;;;;8357789;28;19996;-48
2021/12/09 16:50:55;;;;;;;;;;;15.80;39.20;;;;;;8364573;28;19928;-48
2021/12/09 16:54:57;;;;;;;;;;;15.80;38.70;;;;;;8362009;28;19917;-49
2021/12/09 16:59:03;;;;;;;;;;;15.80;38.70;;;;;;8363994;28;19920;-50
2021/12/09 17:03:04;;;;;;;;;;;15.80;38.80;;;;;;8364681;28;19986;-50
2021/12/09 17:07:05;;;;;;;;;;;15.80;38.80;;;;;;8355347;28;19917;-50
2021/12/09 17:11:06;;;;;;;;;;;15.80;38.80;;;;;;8360975;28;19951;-52
2021/12/09 17:15:09;;;;;;;;;;;15.80;38.80;;;;;;8361755;28;19917;-49
2021/12/09 17:19:10;;;;;;;;;;;15.80;38.80;;;;;;8359452;28;19916;-50
2021/12/09 17:23:11;;;;;;;;;;;15.80;38.80;;;;;;8358828;28;19916;-51
2021/12/09 17:27:11;;;;;;;;;;;15.80;38.80;;;;;;8363373;28;19917;-49
2021/12/09 17:31:15;;;;;;;;;;;15.80;38.80;;;;;;8363958;28;19935;-51
2021/12/09 17:35:16;;;;;;;;;;;15.80;38.80;;;;;;8362145;28;19917;-51
2021/12/09 17:39:17;;;;;;;;;;;15.80;38.80;;;;;;8363031;28;19920;-51
2021/12/09 17:43:18;;;;;;;;;;;15.80;38.80;;;;;;8363731;28;20059;-50
2021/12/09 17:47:19;;;;;;;;;;;15.80;38.80;;;;;;8362649;28;19917;-50
2021/12/09 17:51:20;;;;;;;;;;;15.80;38.80;;;;;;8362571;28;19978;-49
2021/12/09 17:55:21;;;;;;;;;;;15.80;38.80;;;;;;8363413;28;19923;-53
2021/12/09 17:59:21;;;;;;;;;;;15.80;38.80;;;;;;8363509;28;19920;-51
2021/12/09 18:03:23;;;;;;;;;;;15.80;38.80;;;;;;8362391;28;19940;-51
2021/12/09 18:07:23;;;;;;;;;;;15.80;38.80;;;;;;8375390;28;19928;-52
2021/12/09 18:11:27;;;;;;;;;;;15.80;38.80;;;;;;8363211;28;20378;-50
2021/12/09 18:15:33;;;;;;;;;;;15.80;38.80;;;;;;8362466;28;19917;-50
2021/12/09 18:19:34;;;;;;;;;;;15.80;38.80;;;;;;8361991;28;20381;-49
2021/12/09 18:23:35;;;;;;;;;;;15.80;38.80;;;;;;8362780;28;19924;-49
2021/12/09 18:27:36;;;;;;;;;;;15.80;38.80;;;;;;8362606;28;19917;-52
2021/12/09 18:31:36;;;;;;;;;;;15.80;38.80;;;;;;8362960;28;20317;-49
2021/12/09 18:35:39;;;;;;;;;;;15.80;38.70;;;;;;8362194;28;19924;-50
2021/12/09 18:39:41;;;;;;;;;;;15.80;38.80;;;;;;8362137;28;20318;-50
2021/12/09 18:43:41;;;;;;;;;;;15.80;38.80;;;;;;8362735;28;19940;-50
2021/12/09 18:47:42;;;;;;;;;;;15.80;38.80;;;;;;8368003;28;20004;-52
2021/12/09 18:51:43;;;;;;;;;;;15.80;38.80;;;;;;8357767;28;20445;-51
2021/12/09 18:55:45;;;;;;;;;;;15.80;38.80;;;;;;8368764;28;19920;-51
2021/12/09 18:59:45;;;;;;;;;;;15.80;38.90;;;;;;8368938;28;19920;-49
2021/12/09 19:03:46;;;;;;;;;;;15.80;38.80;;;;;;8368185;28;19917;-53
2021/12/09 19:07:47;;;;;;;;;;;15.80;38.80;;;;;;8368366;28;19963;-49
2021/12/09 19:11:47;;;;;;;;;;;15.80;38.80;;;;;;8368507;28;19978;-50
2021/12/09 19:15:49;;;;;;;;;;;15.80;38.80;;;;;;8368751;28;19917;-52
2021/12/09 19:19:49;;;;;;;;;;;15.80;38.90;;;;;;8379148;28;19916;-49
2021/12/09 19:23:49;;;;;;;;;;;15.80;38.80;;;;;;8367311;28;20345;-51
2021/12/09 19:27:51;;;;;;;;;;;15.80;38.80;;;;;;8367968;28;20008;-51
2021/12/09 19:31:52;;;;;;;;;;;15.80;38.80;;;;;;8367778;28;19925;-52
2021/12/09 19:35:54;;;;;;;;;;;15.80;38.80;;;;;;8363963;28;19956;-50
2021/12/09 19:39:54;;;;;;;;;;;15.80;38.80;;;;;;8367223;28;19996;-50
2021/12/09 19:43:55;;;;;;;;;;;15.80;38.90;;;;;;8367180;28;19917;-49
2021/12/09 19:47:56;;;;;;;;;;;15.80;38.80;;;;;;8367000;28;19917;-50
2021/12/09 19:51:56;;;;;;;;;;;15.80;38.90;;;;;;8365725;28;19925;-49
2021/12/09 19:55:57;;;;;;;;;;;15.80;38.80;;;;;;8363679;28;19917;-53
2021/12/09 19:59:57;;;;;;;;;;;15.80;38.80;;;;;;8360451;28;19933;-52
2021/12/09 20:03:58;;;;;;;;;;;15.80;38.80;;;;;;8365653;28;20294;-51
2021/12/09 20:08:02;;;;;;;;;;;15.80;38.80;;;;;;8366799;28;19917;-49
2021/12/09 20:12:03;;;;;;;;;;;15.80;38.80;;;;;;8364957;28;19933;-51
2021/12/09 20:16:08;;;;;;;;;;;15.80;38.80;;;;;;8366221;28;19940;-50
2021/12/09 20:20:10;;;;;;;;;;;15.80;38.80;;;;;;8366054;28;19917;-51
2021/12/09 20:24:10;;;;;;;;;;;15.80;38.80;;;;;;8365549;28;19967;-50
2021/12/09 20:28:11;;;;;;;;;;;15.80;38.80;;;;;;8366410;28;19917;-50
2021/12/09 20:32:11;;;;;;;;;;;15.80;38.80;;;;;;8365731;28;19931;-50
2021/12/09 20:36:12;;;;;;;;;;;15.80;38.80;;;;;;8365111;28;19916;-50
2021/12/09 20:40:14;;;;;;;;;;;15.80;38.70;;;;;;8365424;28;19920;-49
2021/12/09 20:44:14;;;;;;;;;;;15.80;38.80;;;;;;8365266;28;19970;-48
2021/12/09 20:48:15;;;;;;;;;;;15.80;38.80;;;;;;8365175;28;20004;-51
2021/12/09 20:52:15;;;;;;;;;;;15.80;38.80;;;;;;8365049;28;19967;-49
2021/12/09 20:56:16;;;;;;;;;;;15.80;38.80;;;;;;8365255;28;19942;-50
2021/12/09 21:00:18;;;;;;;;;;;15.80;38.80;;;;;;8363158;28;19920;-48
2021/12/09 21:04:19;;;;;;;;;;;15.80;38.80;;;;;;8364633;28;20008;-49
2021/12/09 21:08:20;;;;;;;;;;;15.70;38.70;;;;;;8364160;28;19921;-49
2021/12/09 21:12:23;;;;;;;;;;;15.80;38.80;;;;;;8363890;28;19929;-49
2021/12/09 21:16:24;;;;;;;;;;;15.70;38.70;;;;;;8364628;28;20299;-50
2021/12/09 21:20:24;;;;;;;;;;;15.80;38.80;;;;;;8364283;28;20333;-49
2021/12/09 21:24:25;;;;;;;;;;;15.80;38.80;;;;;;8363807;28;20054;-49
2021/12/09 21:28:26;;;;;;;;;;;15.80;38.80;;;;;;8364430;28;19921;-48
2021/12/09 21:32:27;;;;;;;;;;;15.70;38.70;;;;;;8363865;28;19953;-50
2021/12/09 21:36:33;;;;;;;;;;;15.80;38.80;;;;;;8363293;28;20374;-50
2021/12/09 21:40:35;;;;;;;;;;;15.70;38.80;;;;;;8367658;28;20397;-52
2021/12/09 21:44:35;;;;;;;;;;;15.80;38.80;;;;;;8363564;28;20352;-48
2021/12/09 21:48:36;;;;;;;;;;;15.80;38.80;;;;;;8363521;28;19917;-48
2021/12/09 21:52:36;;;;;;;;;;;15.80;38.70;;;;;;8363377;28;19925;-47
2021/12/09 21:56:38;;;;;;;;;;;15.80;38.70;;;;;;8363373;28;19917;-48
2021/12/09 22:00:39;;;;;;;;;;;15.80;38.70;;;;;;8362953;28;20378;-48
2021/12/09 22:04:39;;;;;;;;;;;15.80;38.70;;;;;;8363177;28;19924;-53
2021/12/09 22:08:40;;;;;;;;;;;15.80;38.70;;;;;;8363593;28;19913;-52
2021/12/09 22:12:42;;;;;;;;;;;15.70;38.60;;;;;;8362845;28;20451;-49
2021/12/09 22:16:47;;;;;;;;;;;15.80;38.60;;;;;;8364026;28;19917;-49
2021/12/09 22:20:48;;;;;;;;;;;15.80;38.60;;;;;;8367998;28;19921;-48
2021/12/09 22:24:49;;;;;;;;;;;15.80;38.60;;;;;;8369393;28;19917;-47
2021/12/09 22:28:50;;;;;;;;;;;15.80;38.60;;;;;;8369960;28;20322;-49
2021/12/09 22:32:50;;;;;;;;;;;15.80;38.60;;;;;;8369089;28;20015;-47
2021/12/09 22:36:51;;;;;;;;;;;15.80;38.60;;;;;;8369569;28;19920;-48
2021/12/09 22:40:52;;;;;;;;;;;15.80;38.60;;;;;;8369596;28;19924;-48
2021/12/09 22:44:52;;;;;;;;;;;15.80;38.60;;;;;;8368653;28;19917;-48
2021/12/09 22:48:53;;;;;;;;;;;15.80;38.60;;;;;;8369496;28;19959;-48
2021/12/09 22:52:55;;;;;;;;;;;15.80;38.60;;;;;;8369368;28;19929;-50
2021/12/09 22:56:55;;;;;;;;;;;15.80;39.20;;;;;;8368239;28;20012;-48
2021/12/09 23:00:56;;;;;;;;;;;15.80;38.60;;;;;;8368190;28;19941;-49
2021/12/09 23:04:56;;;;;;;;;;;15.80;38.60;;;;;;8368935;28;20289;-48
2021/12/09 23:08:59;;;;;;;;;;;15.70;38.60;;;;;;8366797;28;19917;-49
2021/12/09 23:12:59;;;;;;;;;;;15.80;38.60;;;;;;8365419;28;20338;-49
2021/12/09 23:17:03;;;;;;;;;;;15.80;38.60;;;;;;8368217;28;20055;-50
2021/12/09 23:21:05;;;;;;;;;;;15.70;38.60;;;;;;8367367;28;19920;-49
2021/12/09 23:25:06;;;;;;;;;;;15.80;38.60;;;;;;8367704;28;19924;-49
2021/12/09 23:29:07;;;;;;;;;;;15.80;38.60;;;;;;8367939;28;19948;-49
2021/12/09 23:33:09;;;;;;;;;;;15.80;38.60;;;;;;8366366;28;20409;-51
2021/12/09 23:37:09;;;;;;;;;;;15.70;38.60;;;;;;8367850;28;20369;-49
2021/12/09 23:41:10;;;;;;;;;;;15.70;38.60;;;;;;8367376;28;19917;-48
2021/12/09 23:45:11;;;;;;;;;;;15.70;38.60;;;;;;8366836;28;19921;-49
2021/12/09 23:49:12;;;;;;;;;;;15.70;38.60;;;;;;8367598;28;19999;-49
2021/12/09 23:53:13;;;;;;;;;;;15.70;38.60;;;;;;8367158;28;20389;-48
2021/12/09 23:57:13;;;;;;;;;;;15.70;38.60;;;;;;8366542;28;19917;-48
